Time;durP1;ratioP1;P1;durP2;ratioP2;P2;SDS_P1;SDS_P2;PMS_P1;PMS_P2;Temp;Humidity;BMP_temperature;BMP_pressure;BME280_temperature;BME280_humidity;BME280_pressure;Samples;Min_cycle;Max_cycle;Signal;HPM_P1;HPM_P2
2021/03/06 00:01:28;;;;;;;10.30;8.30;;;22.20;48.80;;;;;;5032858;28;20633;-69
2021/03/06 00:03:54;;;;;;;12.57;8.83;;;22.20;48.80;;;;;;5033118;28;20666;-69
2021/03/06 00:06:19;;;;;;;11.17;7.50;;;22.20;48.80;;;;;;5032834;28;20179;-68
2021/03/06 00:08:45;;;;;;;13.70;9.20;;;22.20;48.80;;;;;;5032709;28;20281;-69
2021/03/06 00:11:10;;;;;;;10.80;7.60;;;22.20;48.80;;;;;;5033054;28;20179;-69
2021/03/06 00:13:36;;;;;;;12.07;8.50;;;22.20;48.80;;;;;;5032766;28;20199;-69
2021/03/06 00:16:03;;;;;;;9.40;7.80;;;22.20;48.80;;;;;;5032909;28;20290;-69
2021/03/06 00:18:28;;;;;;;11.80;7.33;;;22.20;48.90;;;;;;5036612;28;20198;-69
2021/03/06 00:20:54;;;;;;;10.13;7.57;;;22.20;48.90;;;;;;5036549;28;20545;-69
2021/03/06 00:23:19;;;;;;;10.73;7.53;;;22.10;48.80;;;;;;5036631;28;20537;-69
2021/03/06 00:25:45;;;;;;;10.60;7.90;;;22.10;48.80;;;;;;5036532;28;20702;-69
2021/03/06 00:28:11;;;;;;;11.33;8.43;;;22.20;48.90;;;;;;5036558;28;20252;-69
2021/03/06 00:30:36;;;;;;;9.77;8.17;;;22.10;49.40;;;;;;5036419;28;20179;-69
2021/03/06 00:33:02;;;;;;;10.50;7.20;;;22.20;48.90;;;;;;5036645;28;20250;-69
2021/03/06 00:35:28;;;;;;;11.63;7.50;;;22.20;48.90;;;;;;5036379;28;20171;-70
2021/03/06 00:37:54;;;;;;;10.30;7.57;;;22.10;48.90;;;;;;5034865;28;20454;-68
2021/03/06 00:40:20;;;;;;;11.77;7.80;;;22.20;49.00;;;;;;5036468;28;20191;-69
2021/03/06 00:42:45;;;;;;;9.47;7.23;;;22.10;48.90;;;;;;5034976;28;20734;-69
2021/03/06 00:45:11;;;;;;;11.53;7.70;;;22.10;48.90;;;;;;5036361;28;20651;-69
2021/03/06 00:47:37;;;;;;;9.70;7.73;;;22.10;48.90;;;;;;5034886;28;20199;-69
2021/03/06 00:50:13;;;;;;;8.70;7.90;;;22.10;49.00;;;;;;5036060;28;20179;-69
2021/03/06 00:52:38;;;;;;;9.10;7.10;;;22.10;48.90;;;;;;5035074;28;20936;-69
2021/03/06 00:55:05;;;;;;;11.90;8.00;;;22.10;49.00;;;;;;5035996;28;20411;-69
2021/03/06 00:57:31;;;;;;;8.90;6.50;;;22.10;49.00;;;;;;5036085;28;20195;-69
2021/03/06 00:59:56;;;;;;;7.73;6.90;;;22.10;49.00;;;;;;5035855;28;20808;-69
2021/03/06 01:02:22;;;;;;;7.10;6.40;;;22.10;48.90;;;;;;5035880;28;20172;-69
2021/03/06 01:04:47;;;;;;;9.70;6.97;;;22.10;49.00;;;;;;5035823;28;20263;-69
2021/03/06 01:07:13;;;;;;;8.40;6.67;;;22.10;49.00;;;;;;5035665;28;20242;-69
2021/03/06 01:09:39;;;;;;;9.67;7.07;;;22.10;49.00;;;;;;5035711;28;20172;-69
2021/03/06 01:12:04;;;;;;;9.37;7.43;;;22.10;49.00;;;;;;5035693;28;20725;-69
2021/03/06 01:14:30;;;;;;;9.20;6.33;;;22.10;49.00;;;;;;5035618;28;20168;-69
2021/03/06 01:16:56;;;;;;;8.13;7.20;;;22.10;49.00;;;;;;5034381;28;20407;-69
2021/03/06 01:19:21;;;;;;;8.00;7.10;;;22.10;49.00;;;;;;5035470;28;20215;-69
2021/03/06 01:21:47;;;;;;;8.73;7.07;;;22.10;49.00;;;;;;5035614;28;20682;-69
2021/03/06 01:24:13;;;;;;;7.80;6.50;;;22.00;48.90;;;;;;5035464;28;20196;-69
2021/03/06 01:26:38;;;;;;;10.00;6.87;;;22.10;49.00;;;;;;5035417;28;20442;-69
2021/03/06 01:29:04;;;;;;;8.97;6.57;;;22.10;49.00;;;;;;5035224;28;20633;-69
2021/03/06 01:31:30;;;;;;;9.47;7.30;;;22.00;48.90;;;;;;5035315;28;20172;-70
2021/03/06 01:33:55;;;;;;;11.63;7.10;;;22.10;49.00;;;;;;5035292;28;20206;-69
2021/03/06 01:36:21;;;;;;;7.93;6.70;;;22.00;48.90;;;;;;5034010;28;20168;-69
2021/03/06 01:38:46;;;;;;;7.97;5.87;;;22.00;49.00;;;;;;5035013;28;20757;-69
2021/03/06 01:41:12;;;;;;;8.03;6.47;;;22.00;49.00;;;;;;5035126;28;20294;-69
2021/03/06 01:43:38;;;;;;;9.17;7.87;;;22.00;49.00;;;;;;5035122;28;20167;-69
2021/03/06 01:46:03;;;;;;;8.70;6.47;;;22.00;49.00;;;;;;5035011;28;20175;-69
2021/03/06 01:48:29;;;;;;;8.97;6.80;;;22.00;49.00;;;;;;5017207;28;20596;-69
2021/03/06 01:50:54;;;;;;;9.70;6.53;;;22.00;49.00;;;;;;5036560;28;20262;-69
2021/03/06 01:53:20;;;;;;;9.13;6.83;;;22.00;49.00;;;;;;5033713;28;20172;-69
2021/03/06 01:55:48;;;;;;;9.00;7.03;;;22.00;49.00;;;;;;5034947;28;20171;-69
2021/03/06 01:58:14;;;;;;;10.10;6.83;;;22.00;49.00;;;;;;5035058;28;20187;-69
2021/03/06 02:00:42;;;;;;;6.77;6.17;;;22.00;49.00;;;;;;5034775;28;20500;-69
2021/03/06 02:03:07;;;;;;;7.17;6.07;;;22.00;49.10;;;;;;5034625;28;20409;-68
2021/03/06 02:05:33;;;;;;;8.00;6.30;;;22.00;49.00;;;;;;5034953;28;20489;-69
2021/03/06 02:08:01;;;;;;;8.13;6.33;;;22.00;49.00;;;;;;5034512;28;20191;-69
2021/03/06 02:10:30;;;;;;;8.03;5.80;;;22.00;49.00;;;;;;5034573;28;20247;-69
2021/03/06 02:13:33;;;;;;;8.43;6.00;;;22.00;49.00;;;;;;5034516;28;20410;-69
2021/03/06 02:16:17;;;;;;;9.50;6.07;;;22.00;49.00;;;;;;5034499;28;20406;-69
2021/03/06 02:19:05;;;;;;;8.07;5.90;;;22.00;49.00;;;;;;5033154;28;20430;-69
2021/03/06 02:22:16;;;;;;;7.90;6.70;;;22.00;49.10;;;;;;5033293;28;20458;-69
2021/03/06 02:24:51;;;;;;;9.50;6.40;;;22.00;49.00;;;;;;5032133;28;20414;-69
2021/03/06 02:27:57;;;;;;;7.80;6.50;;;21.90;49.00;;;;;;5032967;28;20399;-69
2021/03/06 02:30:25;;;;;;;6.33;5.70;;;22.00;49.00;;;;;;5022465;28;20780;-69
2021/03/06 02:32:52;;;;;;;8.03;6.03;;;21.90;49.00;;;;;;5034380;28;20456;-69
2021/03/06 02:35:25;;;;;;;6.83;5.80;;;22.00;49.10;;;;;;5034086;28;20410;-69
2021/03/06 02:38:07;;;;;;;7.27;5.93;;;22.00;49.00;;;;;;5033909;28;20469;-70
2021/03/06 02:40:35;;;;;;;8.33;6.33;;;22.00;49.00;;;;;;5033754;28;20441;-69
2021/03/06 02:43:02;;;;;;;6.57;5.50;;;22.00;49.00;;;;;;5033953;28;20410;-69
2021/03/06 02:45:29;;;;;;;7.90;6.27;;;22.00;49.00;;;;;;5033904;28;20398;-69
2021/03/06 02:47:56;;;;;;;8.10;5.97;;;22.00;49.00;;;;;;5033755;28;20435;-69
2021/03/06 02:50:22;;;;;;;6.33;5.67;;;22.00;49.00;;;;;;5033823;28;20411;-69
2021/03/06 02:52:48;;;;;;;8.10;5.93;;;22.00;49.00;;;;;;5033919;28;20470;-69
2021/03/06 02:55:13;;;;;;;8.83;6.53;;;22.00;49.00;;;;;;5033736;28;20410;-69
2021/03/06 02:58:10;;;;;;;7.50;6.80;;;22.00;49.00;;;;;;5033609;28;20191;-69
2021/03/06 03:00:59;;;;;;;6.43;5.83;;;22.00;48.90;;;;;;5033790;28;20658;-69
2021/03/06 03:03:37;;;;;;;6.30;5.20;;;22.00;49.00;;;;;;5033949;28;20383;-69
2021/03/06 03:06:33;;;;;;;6.60;5.33;;;22.00;49.00;;;;;;5032320;28;20505;-69
2021/03/06 03:09:11;;;;;;;6.47;5.63;;;22.00;49.00;;;;;;5033403;28;20427;-69
2021/03/06 03:11:48;;;;;;;7.23;5.60;;;22.00;49.00;;;;;;5033501;28;20386;-70
2021/03/06 03:14:18;;;;;;;6.07;5.43;;;22.00;49.00;;;;;;5033412;28;20402;-69
2021/03/06 03:16:52;;;;;;;6.67;5.70;;;21.90;49.00;;;;;;5033402;28;20406;-69
2021/03/06 03:19:32;;;;;;;5.47;4.97;;;22.00;49.00;;;;;;5032099;28;20437;-69
2021/03/06 03:22:00;;;;;;;7.50;5.70;;;22.00;49.00;;;;;;5033367;28;20403;-69
2021/03/06 03:24:31;;;;;;;8.27;5.50;;;22.00;49.00;;;;;;5033300;28;20415;-69
2021/03/06 03:26:57;;;;;;;6.83;5.93;;;21.90;49.00;;;;;;5033675;28;20406;-69
2021/03/06 03:29:23;;;;;;;6.03;4.37;;;21.90;49.00;;;;;;5033665;28;20925;-69
2021/03/06 03:31:51;;;;;;;6.77;5.37;;;21.90;49.00;;;;;;5033184;28;20403;-69
2021/03/06 03:34:20;;;;;;;7.57;6.03;;;21.90;49.00;;;;;;5033463;28;20905;-69
2021/03/06 03:36:49;;;;;;;7.80;5.40;;;21.90;49.00;;;;;;5033041;28;20497;-69
2021/03/06 03:39:15;;;;;;;6.33;5.07;;;21.90;49.00;;;;;;5033058;28;20438;-69
2021/03/06 03:41:43;;;;;;;8.67;5.83;;;21.80;49.00;;;;;;5032984;28;20465;-69
2021/03/06 03:44:09;;;;;;;6.40;5.03;;;21.90;49.10;;;;;;5033071;28;20398;-69
2021/03/06 03:46:38;;;;;;;10.43;5.70;;;21.90;49.10;;;;;;5033028;28;20817;-69
2021/03/06 03:49:05;;;;;;;5.30;4.40;;;21.90;49.10;;;;;;5032914;28;20539;-69
2021/03/06 03:51:32;;;;;;;6.53;5.73;;;21.80;49.10;;;;;;5034254;28;20420;-69
2021/03/06 03:53:58;;;;;;;6.43;5.27;;;21.90;49.10;;;;;;5037392;28;20753;-69
2021/03/06 03:56:26;;;;;;;6.53;5.37;;;21.90;49.20;;;;;;5037054;28;20409;-69
2021/03/06 03:58:51;;;;;;;7.87;5.60;;;21.80;49.10;;;;;;5035646;28;20521;-69
2021/03/06 04:01:17;;;;;;;6.13;5.20;;;21.80;49.10;;;;;;5036965;28;20548;-69
2021/03/06 04:03:42;;;;;;;5.70;5.10;;;21.80;49.20;;;;;;5035728;28;20551;-69
2021/03/06 04:06:08;;;;;;;5.77;5.10;;;21.80;49.70;;;;;;5036901;28;20164;-69
2021/03/06 04:08:35;;;;;;;8.47;5.50;;;21.80;49.20;;;;;;5036742;28;20237;-68
2021/03/06 04:11:01;;;;;;;5.80;5.00;;;21.80;49.20;;;;;;5035530;28;20305;-69
2021/03/06 04:13:26;;;;;;;6.13;4.70;;;21.80;49.20;;;;;;5036764;28;20417;-69
2021/03/06 04:15:52;;;;;;;6.53;5.03;;;21.80;49.20;;;;;;5036703;28;20406;-69
2021/03/06 04:18:17;;;;;;;6.10;4.73;;;21.80;49.20;;;;;;5036608;28;20214;-69
2021/03/06 04:20:43;;;;;;;5.90;4.97;;;21.80;49.20;;;;;;5036501;28;20206;-69
2021/03/06 04:23:09;;;;;;;7.00;4.63;;;21.80;49.10;;;;;;5036633;28;20167;-69
2021/03/06 04:25:34;;;;;;;5.90;5.13;;;21.80;49.10;;;;;;5036590;28;20213;-69
2021/03/06 04:28:00;;;;;;;5.30;4.80;;;21.80;49.10;;;;;;5036392;28;20194;-69
2021/03/06 04:30:25;;;;;;;5.60;4.60;;;21.80;49.20;;;;;;5035196;28;20221;-69
2021/03/06 04:32:51;;;;;;;5.50;4.70;;;21.80;49.20;;;;;;5036380;28;20211;-69
2021/03/06 04:35:17;;;;;;;5.27;4.67;;;21.80;49.20;;;;;;5036333;28;20168;-69
2021/03/06 04:37:43;;;;;;;5.60;4.87;;;21.80;49.20;;;;;;5036187;28;20964;-69
2021/03/06 04:40:11;;;;;;;5.83;5.10;;;21.80;49.20;;;;;;5036334;28;20226;-69
2021/03/06 04:42:37;;;;;;;5.07;4.50;;;21.80;49.20;;;;;;5035006;28;20584;-69
2021/03/06 04:45:04;;;;;;;5.27;4.50;;;21.80;49.20;;;;;;5036198;28;20858;-69
2021/03/06 04:47:30;;;;;;;5.90;4.90;;;21.80;49.20;;;;;;5036076;28;20971;-70
2021/03/06 04:49:56;;;;;;;5.07;4.20;;;21.80;49.20;;;;;;5036079;28;20410;-69
2021/03/06 04:52:22;;;;;;;5.90;4.23;;;21.80;49.20;;;;;;5036098;28;20172;-69
2021/03/06 04:54:48;;;;;;;5.07;4.53;;;21.70;49.10;;;;;;5035999;28;20752;-69
2021/03/06 04:57:14;;;;;;;6.13;5.03;;;21.70;49.10;;;;;;5036142;28;20224;-69
2021/03/06 04:59:41;;;;;;;5.80;5.00;;;21.70;49.10;;;;;;5035845;28;20410;-69
2021/03/06 05:02:06;;;;;;;5.80;4.17;;;21.70;49.10;;;;;;5034190;28;20268;-69
2021/03/06 05:04:32;;;;;;;4.60;4.00;;;21.70;49.10;;;;;;5035847;28;20434;-68
2021/03/06 05:06:58;;;;;;;7.60;5.30;;;21.70;49.10;;;;;;5034597;28;20259;-69
2021/03/06 05:09:24;;;;;;;5.80;4.80;;;21.70;49.10;;;;;;5035695;28;20195;-69
2021/03/06 05:11:49;;;;;;;5.80;4.40;;;21.70;49.20;;;;;;5034587;28;20419;-69
2021/03/06 05:14:15;;;;;;;5.53;4.70;;;21.70;49.20;;;;;;5035910;28;20176;-69
2021/03/06 05:16:40;;;;;;;5.70;4.53;;;21.70;49.20;;;;;;5034363;28;20266;-69
2021/03/06 05:19:06;;;;;;;6.30;4.93;;;21.70;49.80;;;;;;5035506;28;20565;-69
2021/03/06 05:21:32;;;;;;;5.30;4.40;;;21.70;49.20;;;;;;5035934;28;20280;-69
2021/03/06 05:23:57;;;;;;;6.70;3.90;;;21.70;49.20;;;;;;5034183;28;20170;-69
2021/03/06 05:26:23;;;;;;;6.73;4.20;;;21.70;49.10;;;;;;5035437;28;20639;-69
2021/03/06 05:28:48;;;;;;;5.20;3.60;;;21.70;49.20;;;;;;5035270;28;20663;-69
2021/03/06 05:31:14;;;;;;;5.40;4.40;;;21.70;49.20;;;;;;5035340;28;20183;-69
2021/03/06 05:33:40;;;;;;;5.47;4.73;;;21.70;49.10;;;;;;5035306;28;20245;-69
2021/03/06 05:36:06;;;;;;;4.63;3.97;;;21.70;49.10;;;;;;5035263;28;20184;-69
2021/03/06 05:38:31;;;;;;;4.53;3.93;;;21.70;49.20;;;;;;5033797;28;20218;-66
2021/03/06 05:40:57;;;;;;;5.30;4.43;;;21.70;49.10;;;;;;5034628;28;20449;-69
2021/03/06 05:43:22;;;;;;;6.77;4.67;;;21.70;49.10;;;;;;5035144;28;20164;-69
2021/03/06 05:45:49;;;;;;;6.17;4.80;;;21.70;49.10;;;;;;5035105;28;20200;-69
2021/03/06 05:48:18;;;;;;;4.60;4.13;;;21.70;49.10;;;;;;5034884;28;20192;-69
2021/03/06 05:50:45;;;;;;;5.30;3.90;;;21.80;49.20;;;;;;5034958;28;20402;-69
2021/03/06 05:53:15;;;;;;;4.70;4.20;;;21.80;49.10;;;;;;5034918;28;20514;-69
2021/03/06 05:55:43;;;;;;;4.47;4.07;;;21.70;49.00;;;;;;5034847;28;20774;-69
2021/03/06 05:58:09;;;;;;;5.93;4.73;;;21.80;49.10;;;;;;5035063;28;20433;-69
2021/03/06 06:00:42;;;;;;;5.50;3.90;;;21.80;49.00;;;;;;5034777;28;20450;-69
2021/03/06 06:03:08;;;;;;;4.63;3.93;;;21.80;49.00;;;;;;5035007;28;20528;-69
2021/03/06 06:05:34;;;;;;;4.50;3.43;;;21.80;48.90;;;;;;5034718;28;20418;-69
2021/03/06 06:08:03;;;;;;;5.03;4.20;;;21.80;48.90;;;;;;5034456;28;20426;-69
2021/03/06 06:10:30;;;;;;;5.43;4.40;;;21.90;49.00;;;;;;5034644;28;20172;-69
2021/03/06 06:12:59;;;;;;;4.20;3.33;;;21.90;48.90;;;;;;5034545;28;20870;-69
2021/03/06 06:15:26;;;;;;;5.03;3.83;;;21.90;48.90;;;;;;5033685;28;20784;-69
2021/03/06 06:17:51;;;;;;;4.27;3.80;;;21.80;48.80;;;;;;5034393;28;20422;-69
2021/03/06 06:20:18;;;;;;;5.60;4.20;;;21.80;48.80;;;;;;5034337;28;20798;-69
2021/03/06 06:22:44;;;;;;;4.17;3.57;;;21.90;48.80;;;;;;5034393;28;20172;-69
2021/03/06 06:25:28;;;;;;;4.93;3.70;;;21.90;48.80;;;;;;5034281;28;20409;-69
2021/03/06 06:28:00;;;;;;;4.83;3.60;;;21.90;49.00;;;;;;5034230;28;20469;-69
2021/03/06 06:30:26;;;;;;;5.33;4.27;;;21.90;48.70;;;;;;5032962;28;20406;-68
2021/03/06 06:32:52;;;;;;;4.50;3.73;;;21.90;48.70;;;;;;5032918;28;20533;-69
2021/03/06 06:35:17;;;;;;;4.30;3.80;;;21.90;48.70;;;;;;5032936;28;20411;-69
2021/03/06 06:37:57;;;;;;;5.07;3.73;;;22.00;48.70;;;;;;5032760;28;20211;-69
2021/03/06 06:40:25;;;;;;;4.00;3.60;;;22.00;48.70;;;;;;5034228;28;20195;-69
2021/03/06 06:42:51;;;;;;;5.67;4.77;;;22.00;48.70;;;;;;5034266;28;20931;-69
2021/03/06 06:45:17;;;;;;;4.07;3.40;;;22.00;48.70;;;;;;5033912;28;20522;-69
2021/03/06 06:47:48;;;;;;;4.73;4.20;;;22.00;48.70;;;;;;5033824;28;20925;-69
2021/03/06 06:50:27;;;;;;;4.37;3.83;;;22.00;48.70;;;;;;5033927;28;20242;-69
2021/03/06 06:52:52;;;;;;;6.43;4.30;;;22.00;48.70;;;;;;5032577;28;20975;-69
2021/03/06 06:55:18;;;;;;;4.30;3.23;;;22.00;48.70;;;;;;5033742;28;20402;-69
2021/03/06 06:57:54;;;;;;;4.20;3.10;;;22.00;48.70;;;;;;5033960;28;20713;-68
2021/03/06 07:00:20;;;;;;;4.10;3.70;;;22.00;48.70;;;;;;5033706;28;20191;-69
2021/03/06 07:02:59;;;;;;;3.80;3.27;;;22.00;48.70;;;;;;5033638;28;20406;-69
2021/03/06 07:05:32;;;;;;;4.47;3.23;;;22.00;48.70;;;;;;5033909;28;20512;-69
2021/03/06 07:07:59;;;;;;;4.27;3.30;;;22.00;48.70;;;;;;5032271;28;20945;-69
2021/03/06 07:10:45;;;;;;;4.60;3.93;;;22.00;48.80;;;;;;5033810;28;20751;-69
2021/03/06 07:13:12;;;;;;;4.30;3.63;;;22.00;48.70;;;;;;5033293;28;20833;-69
2021/03/06 07:15:39;;;;;;;4.47;3.50;;;22.00;48.70;;;;;;5032195;28;20433;-69
2021/03/06 07:18:07;;;;;;;4.07;3.67;;;22.00;48.70;;;;;;5033724;28;20438;-69
2021/03/06 07:20:38;;;;;;;3.40;3.10;;;22.00;48.80;;;;;;5033292;28;20950;-69
2021/03/06 07:23:17;;;;;;;5.30;3.43;;;22.00;48.80;;;;;;5033455;28;20482;-69
2021/03/06 07:25:43;;;;;;;3.70;3.30;;;22.00;48.70;;;;;;5033455;28;20771;-69
2021/03/06 07:28:10;;;;;;;3.60;3.30;;;22.00;48.80;;;;;;5033473;28;20434;-69
2021/03/06 07:30:36;;;;;;;3.50;3.20;;;22.00;48.80;;;;;;5033582;28;20187;-68
2021/03/06 07:33:05;;;;;;;3.93;3.40;;;22.10;48.80;;;;;;5033458;28;20510;-69
2021/03/06 07:35:37;;;;;;;4.50;3.60;;;22.00;48.70;;;;;;5033390;28;20902;-69
2021/03/06 07:38:09;;;;;;;4.10;3.40;;;22.10;48.80;;;;;;5032940;28;20466;-69
2021/03/06 07:40:48;;;;;;;3.63;3.30;;;22.00;48.70;;;;;;5031814;28;20521;-69
2021/03/06 07:43:19;;;;;;;4.10;3.40;;;22.10;48.80;;;;;;5033345;28;20390;-69
2021/03/06 07:45:51;;;;;;;4.50;3.40;;;22.00;48.60;;;;;;5033089;28;20395;-69
2021/03/06 07:48:19;;;;;;;4.20;3.40;;;22.00;48.60;;;;;;5033175;28;20925;-69
2021/03/06 07:50:50;;;;;;;4.50;3.60;;;22.00;48.60;;;;;;5035383;28;20916;-69
2021/03/06 07:53:17;;;;;;;4.77;3.70;;;22.00;48.70;;;;;;5032885;28;20824;-69
2021/03/06 07:55:43;;;;;;;4.53;3.80;;;22.00;48.70;;;;;;5032917;28;20452;-69
2021/03/06 07:58:10;;;;;;;6.50;4.30;;;22.00;48.70;;;;;;5032794;28;20431;-69
2021/03/06 08:00:41;;;;;;;5.47;3.57;;;22.00;48.60;;;;;;5033096;28;20544;-69
2021/03/06 08:03:26;;;;;;;5.00;3.57;;;22.00;48.60;;;;;;5032842;28;20414;-69
2021/03/06 08:05:53;;;;;;;4.37;3.47;;;22.00;48.50;;;;;;5032814;28;20555;-69
2021/03/06 08:08:35;;;;;;;3.63;3.33;;;22.00;48.60;;;;;;5032729;28;20929;-69
2021/03/06 08:11:16;;;;;;;3.70;3.37;;;22.00;48.60;;;;;;5032658;28;20444;-69
2021/03/06 08:13:43;;;;;;;4.50;3.60;;;21.90;48.60;;;;;;5033048;28;20394;-69
2021/03/06 08:16:24;;;;;;;3.87;3.40;;;21.90;48.70;;;;;;5032996;28;20480;-69
2021/03/06 08:19:12;;;;;;;3.47;2.93;;;22.00;48.80;;;;;;5032554;28;20996;-69
2021/03/06 08:21:40;;;;;;;3.67;3.00;;;22.00;48.80;;;;;;5032939;28;20455;-69
2021/03/06 08:27:02;;;;;;;5.17;3.90;;;22.00;48.80;;;;;;5033220;28;20417;-68
2021/03/06 08:29:28;;;;;;;4.67;3.83;;;21.90;48.80;;;;;;5032489;28;20438;-69
2021/03/06 08:31:57;;;;;;;6.50;3.77;;;21.90;48.90;;;;;;5032889;28;20421;-68
2021/03/06 08:34:41;;;;;;;4.23;3.70;;;21.90;48.90;;;;;;5032851;28;20494;-69
2021/03/06 08:37:22;;;;;;;3.93;3.40;;;22.00;48.90;;;;;;5032799;28;20462;-68
2021/03/06 08:39:58;;;;;;;8.53;3.90;;;21.90;48.90;;;;;;5036246;28;20830;-69
2021/03/06 08:42:28;;;;;;;3.93;3.43;;;21.90;48.90;;;;;;5036209;28;20814;-70
2021/03/06 08:44:59;;;;;;;4.90;3.73;;;21.90;48.90;;;;;;5036672;28;20406;-69
2021/03/06 08:47:34;;;;;;;4.63;3.70;;;21.90;48.90;;;;;;5036352;28;20415;-69
2021/03/06 08:50:02;;;;;;;4.57;3.63;;;22.00;49.00;;;;;;5036002;28;20912;-69
2021/03/06 08:52:29;;;;;;;5.27;3.87;;;21.90;48.90;;;;;;5034790;28;20569;-69
2021/03/06 08:54:56;;;;;;;4.50;3.30;;;21.90;48.90;;;;;;5036043;28;20791;-69
2021/03/06 08:57:32;;;;;;;4.17;3.40;;;21.90;48.90;;;;;;5035926;28;20410;-68
2021/03/06 09:00:00;;;;;;;5.80;3.50;;;22.00;49.00;;;;;;5035882;28;20421;-68
2021/03/06 09:02:31;;;;;;;4.17;3.60;;;21.90;48.90;;;;;;5035936;28;20927;-69
2021/03/06 09:05:13;;;;;;;3.70;3.40;;;21.90;48.90;;;;;;5036225;28;20912;-69
2021/03/06 09:07:42;;;;;;;4.57;3.50;;;22.00;48.90;;;;;;5036780;28;20449;-69
2021/03/06 09:10:19;;;;;;;5.47;3.63;;;22.00;48.90;;;;;;5035738;28;20472;-69
2021/03/06 09:12:47;;;;;;;3.50;3.00;;;22.00;48.90;;;;;;5035774;28;20399;-70
2021/03/06 09:15:23;;;;;;;3.47;3.07;;;22.00;48.90;;;;;;5035695;28;20446;-68
2021/03/06 09:17:52;;;;;;;3.07;2.60;;;21.90;48.80;;;;;;5035839;28;20425;-69
2021/03/06 09:20:17;;;;;;;3.70;2.60;;;22.00;48.90;;;;;;5035530;28;20454;-69
2021/03/06 09:22:45;;;;;;;5.50;3.90;;;22.00;48.90;;;;;;5035465;28;20421;-69
2021/03/06 09:25:12;;;;;;;4.00;2.90;;;22.00;48.90;;;;;;5035334;28;20168;-69
2021/03/06 09:27:48;;;;;;;3.67;2.93;;;22.00;48.90;;;;;;5034042;28;20435;-67
2021/03/06 09:30:33;;;;;;;3.70;3.27;;;22.00;48.90;;;;;;5035691;28;20782;-69
2021/03/06 09:32:59;;;;;;;3.40;3.10;;;22.00;48.80;;;;;;5035529;28;20513;-69
2021/03/06 09:35:28;;;;;;;6.70;2.90;;;22.00;48.80;;;;;;5035418;28;20421;-69
2021/03/06 09:38:10;;;;;;;4.20;3.80;;;22.00;48.80;;;;;;5033816;28;20489;-69
2021/03/06 09:40:44;;;;;;;4.37;3.97;;;22.00;48.80;;;;;;5035079;28;20545;-69
2021/03/06 09:43:15;;;;;;;5.47;4.10;;;22.00;48.80;;;;;;5035803;28;20418;-69
2021/03/06 09:45:41;;;;;;;4.83;4.33;;;22.00;48.40;;;;;;5035190;28;20403;-69
2021/03/06 09:48:14;;;;;;;4.63;3.87;;;21.90;48.00;;;;;;5034715;28;20476;-70
2021/03/06 09:50:44;;;;;;;5.47;4.20;;;22.00;47.20;;;;;;5032965;28;20422;-70
2021/03/06 09:53:30;;;;;;;6.80;3.77;;;22.00;46.60;;;;;;5033810;28;20514;-69
2021/03/06 09:56:06;;;;;;;5.60;4.10;;;21.90;46.50;;;;;;5034645;28;20430;-68
2021/03/06 09:58:31;;;;;;;5.70;3.80;;;21.90;46.40;;;;;;5035041;28;20460;-67
2021/03/06 10:01:12;;;;;;;4.70;4.00;;;21.90;46.50;;;;;;5033483;28;21000;-69
2021/03/06 10:03:38;;;;;;;3.37;3.07;;;21.90;46.80;;;;;;5034048;28;20623;-69
2021/03/06 10:06:07;;;;;;;8.73;4.03;;;22.00;47.30;;;;;;5033801;28;20417;-69
2021/03/06 10:08:37;;;;;;;3.57;3.20;;;21.90;47.30;;;;;;5033670;28;20188;-68
2021/03/06 10:11:03;;;;;;;3.97;3.27;;;21.90;47.50;;;;;;5033213;28;20402;-68
2021/03/06 10:13:29;;;;;;;4.20;2.90;;;21.90;47.60;;;;;;5032467;28;20409;-71
2021/03/06 10:15:58;;;;;;;4.43;3.30;;;21.90;47.60;;;;;;5031681;28;20906;-70
2021/03/06 10:18:24;;;;;;;4.87;3.27;;;21.90;47.70;;;;;;5032079;28;20426;-70
2021/03/06 10:20:50;;;;;;;3.77;3.10;;;21.90;47.80;;;;;;5032306;28;20875;-70
2021/03/06 10:23:36;;;;;;;6.93;3.60;;;21.90;47.90;;;;;;5032279;28;20403;-69
2021/03/06 10:26:25;;;;;;;3.60;2.97;;;21.90;47.90;;;;;;5032213;28;20175;-69
2021/03/06 10:28:56;;;;;;;7.60;3.20;;;21.90;47.90;;;;;;5031584;28;20446;-70
2021/03/06 10:31:32;;;;;;;4.03;2.87;;;21.90;48.00;;;;;;5034186;28;20407;-70
2021/03/06 10:34:13;;;;;;;6.30;3.00;;;21.90;48.10;;;;;;5034489;28;20741;-69
2021/03/06 10:36:39;;;;;;;5.13;3.33;;;21.80;48.00;;;;;;5034321;28;20418;-69
2021/03/06 10:39:31;;;;;;;6.17;3.07;;;21.90;48.10;;;;;;5034078;28;20441;-68
2021/03/06 10:41:58;;;;;;;6.30;3.80;;;21.90;48.20;;;;;;5032040;28;20219;-69
2021/03/06 10:44:37;;;;;;;4.93;3.50;;;21.90;48.20;;;;;;5033980;28;20418;-69
2021/03/06 10:47:03;;;;;;;3.30;2.70;;;21.90;48.20;;;;;;5033552;28;20414;-67
2021/03/06 10:49:44;;;;;;;3.70;3.07;;;21.80;48.20;;;;;;5033866;28;20556;-68
2021/03/06 10:52:25;;;;;;;3.60;2.90;;;21.90;48.30;;;;;;5034147;28;20164;-69
2021/03/06 10:54:52;;;;;;;5.73;3.00;;;21.90;48.30;;;;;;5033793;28;20411;-69
2021/03/06 10:57:18;;;;;;;5.27;3.30;;;21.80;48.30;;;;;;5032429;28;20423;-69
2021/03/06 10:59:44;;;;;;;4.20;3.20;;;21.80;48.30;;;;;;5033416;28;20433;-69
2021/03/06 11:02:28;;;;;;;4.50;3.17;;;21.80;48.30;;;;;;5033455;28;20437;-69
2021/03/06 11:04:55;;;;;;;5.10;3.07;;;21.90;48.40;;;;;;5033705;28;20415;-69
2021/03/06 11:07:28;;;;;;;6.30;3.93;;;21.80;48.40;;;;;;5033546;28;20901;-69
2021/03/06 11:09:59;;;;;;;3.97;2.60;;;21.90;48.40;;;;;;5033574;28;20394;-69
2021/03/06 11:12:31;;;;;;;6.60;3.37;;;21.90;48.50;;;;;;5033534;28;20399;-69
2021/03/06 11:15:15;;;;;;;3.93;2.97;;;21.90;48.40;;;;;;5033518;28;20383;-68
2021/03/06 11:17:43;;;;;;;5.83;3.00;;;21.90;48.40;;;;;;5033635;28;20424;-69
2021/03/06 11:20:11;;;;;;;4.70;2.40;;;21.90;48.50;;;;;;5033326;28;20446;-68
2021/03/06 11:22:36;;;;;;;3.17;2.60;;;21.90;48.50;;;;;;5033422;28;20461;-69
2021/03/06 11:25:04;;;;;;;3.93;2.50;;;21.80;48.40;;;;;;5033371;28;20909;-69
2021/03/06 11:27:41;;;;;;;3.50;3.00;;;21.90;48.40;;;;;;5033136;28;20171;-69
2021/03/06 11:30:07;;;;;;;5.87;2.97;;;21.90;48.40;;;;;;5033454;28;20403;-70
2021/03/06 11:32:33;;;;;;;3.53;2.87;;;21.90;48.40;;;;;;5033234;28;20413;-68
2021/03/06 11:34:58;;;;;;;4.17;3.47;;;21.90;48.40;;;;;;5033270;28;20414;-69
2021/03/06 11:37:24;;;;;;;4.60;3.50;;;21.80;48.30;;;;;;5032409;28;20195;-69
2021/03/06 11:39:49;;;;;;;3.17;2.10;;;21.90;48.30;;;;;;5033310;28;20178;-68
2021/03/06 11:42:15;;;;;;;3.27;2.47;;;21.90;48.30;;;;;;5033147;28;20507;-69
2021/03/06 11:44:40;;;;;;;3.20;2.90;;;21.90;48.30;;;;;;5032084;28;20182;-70
2021/03/06 11:47:06;;;;;;;6.13;3.20;;;21.90;48.30;;;;;;5033259;28;20168;-69
2021/03/06 11:49:32;;;;;;;3.90;3.37;;;21.90;48.10;;;;;;5032929;28;20187;-69
2021/03/06 11:51:59;;;;;;;3.87;2.60;;;21.90;48.00;;;;;;5032247;28;20245;-68
2021/03/06 11:54:24;;;;;;;4.50;3.00;;;21.90;47.60;;;;;;5032992;28;20178;-69
2021/03/06 11:56:50;;;;;;;3.30;2.87;;;21.90;47.20;;;;;;5032952;28;20410;-69
2021/03/06 11:59:15;;;;;;;3.70;2.30;;;21.90;46.40;;;;;;5032901;28;20188;-69
2021/03/06 12:01:41;;;;;;;5.03;3.00;;;21.90;46.20;;;;;;5033075;28;20191;-69
2021/03/06 12:04:07;;;;;;;3.93;2.57;;;21.90;45.70;;;;;;5033215;28;20646;-69
2021/03/06 12:06:32;;;;;;;3.13;2.60;;;21.90;45.40;;;;;;5032887;28;20171;-69
2021/03/06 12:08:58;;;;;;;3.93;2.50;;;21.90;45.80;;;;;;5032837;28;20183;-69
2021/03/06 12:11:23;;;;;;;5.73;2.23;;;21.90;45.70;;;;;;5033207;28;20183;-69
2021/03/06 12:13:49;;;;;;;3.60;2.53;;;21.90;45.20;;;;;;5036332;28;20179;-69
2021/03/06 12:16:15;;;;;;;4.70;2.53;;;21.90;44.60;;;;;;5037079;28;20259;-70
2021/03/06 12:18:40;;;;;;;4.57;2.80;;;21.90;44.30;;;;;;5036801;28;20544;-69
2021/03/06 12:21:06;;;;;;;3.30;2.30;;;21.80;44.10;;;;;;5036661;28;20251;-69
2021/03/06 12:23:31;;;;;;;3.50;2.60;;;21.80;43.80;;;;;;5037022;28;20171;-69
2021/03/06 12:25:57;;;;;;;4.73;2.50;;;21.80;43.60;;;;;;5036610;28;20179;-69
2021/03/06 12:28:23;;;;;;;4.07;2.67;;;21.80;43.60;;;;;;5036572;28;20270;-69
2021/03/06 12:30:48;;;;;;;5.20;2.13;;;21.80;43.30;;;;;;5036588;28;20171;-69
2021/03/06 12:33:14;;;;;;;3.20;2.30;;;21.70;42.70;;;;;;5036531;28;20199;-70
2021/03/06 12:35:39;;;;;;;3.23;1.90;;;21.70;42.70;;;;;;5036458;28;20186;-69
2021/03/06 12:38:05;;;;;;;2.57;2.00;;;21.70;42.70;;;;;;5036293;28;20199;-69
2021/03/06 12:40:31;;;;;;;4.00;2.07;;;21.70;42.70;;;;;;5036358;28;20196;-69
2021/03/06 12:42:56;;;;;;;3.50;2.30;;;21.60;42.30;;;;;;5036347;28;20631;-69
2021/03/06 12:45:22;;;;;;;2.30;2.07;;;21.60;41.90;;;;;;5036365;28;20619;-69
2021/03/06 12:47:47;;;;;;;2.90;2.17;;;21.60;41.80;;;;;;5036416;28;20194;-69
2021/03/06 12:50:15;;;;;;;2.30;2.10;;;21.60;41.80;;;;;;5036411;28;20179;-69
2021/03/06 12:52:41;;;;;;;2.20;2.00;;;21.60;41.50;;;;;;5036069;28;20190;-69
2021/03/06 12:55:07;;;;;;;2.90;2.20;;;21.60;41.60;;;;;;5034985;28;20501;-69
2021/03/06 12:57:34;;;;;;;2.37;2.17;;;21.60;41.40;;;;;;5036064;28;20787;-68
2021/03/06 13:00:00;;;;;;;3.00;2.10;;;21.60;41.60;;;;;;5036072;28;20417;-69